Terminal Aerodrome Forecast
Issued by NWS Sioux Falls, SD

Home | Current Version | Previous Version | Graphics & Text | Print | Product List | Glossary On
Versions: 1 2 3 4 5 6 7 8 9 10 11 12 13 14 15 16 17 18 19
000
FTUS43 KFSD 171704 AAD
TAFHON
TAF AMD
KHON 171704Z 1717/1812 VRB03KT 6SM BR SCT003
     FM171800 10005KT P6SM SCT100
     FM180000 10005KT P6SM BKN100
     FM180600 14007KT P6SM BKN100 OVC250=

USA.gov is the U.S. government's official web portal to all federal, state and local government web resources and services.